Time;durP1;ratioP1;P1;durP2;ratioP2;P2;SDS_P1;SDS_P2;PMS_P1;PMS_P2;Temp;Humidity;BMP_temperature;BMP_pressure;BME280_temperature;BME280_humidity;BME280_pressure;Samples;Min_cycle;Max_cycle;Signal;HPM_P1;HPM_P2
2022/02/01 00:00:12;;;;;;;10.82;1.25;;;;;;;-146.41;100.00;57768.22;4970507;28;20472;-66
2022/02/01 00:19:34;;;;;;;12.63;1.10;;;;;;;-146.41;100.00;57768.22;4909142;29;20048;-66
2022/02/01 00:35:44;;;;;;;12.65;1.60;;;;;;;-146.41;100.00;57768.22;4970722;28;20154;-66
2022/02/01 00:38:27;;;;;;;10.50;1.67;;;;;;;-146.41;100.00;57768.22;4970124;28;20074;-67
2022/02/01 00:41:03;;;;;;;18.35;1.67;;;;;;;-146.41;100.00;57768.22;4971668;28;20154;-67
2022/02/01 00:43:32;;;;;;;12.27;1.52;;;;;;;-146.41;100.00;57768.22;4970338;28;20146;-67
2022/02/01 00:46:02;;;;;;;16.63;1.60;;;;;;;-146.41;100.00;57768.22;4969969;28;20063;-67
2022/02/01 00:48:31;;;;;;;15.85;2.20;;;;;;;-146.41;100.00;57768.22;4969606;28;20507;-66
2022/02/01 00:51:00;;;;;;;13.07;1.52;;;;;;;-146.41;100.00;57768.22;4966843;28;20073;-66
2022/02/01 00:53:31;;;;;;;18.67;2.25;;;;;;;-146.41;100.00;57768.22;4967905;28;20061;-67
2022/02/01 00:56:00;;;;;;;17.80;2.30;;;;;;;-146.41;100.00;57768.22;4968377;28;20050;-67
2022/02/01 00:58:28;;;;;;;13.07;1.42;;;;;;;-146.41;100.00;57768.22;4968130;28;20143;-67
2022/02/01 01:00:57;;;;;;;13.23;1.92;;;;;;;-146.41;100.00;57768.22;4969405;28;20046;-67
2022/02/01 01:03:26;;;;;;;17.73;2.00;;;;;;;-146.41;100.00;57768.22;4969325;28;20427;-67
2022/02/01 01:05:54;;;;;;;19.33;1.75;;;;;;;-146.41;100.00;57768.22;4967923;28;20063;-67
2022/02/01 01:08:23;;;;;;;17.35;1.98;;;;;;;-146.41;100.00;57768.22;4969728;28;20160;-67
2022/02/01 01:10:51;;;;;;;14.43;1.55;;;;;;;-146.41;100.00;57768.22;4968804;28;20483;-67
2022/02/01 01:16:10;;;;;;;21.23;2.20;;;;;;;-146.41;100.00;57768.22;4966812;28;20141;-67
2022/02/01 01:43:42;;;;;;;22.20;2.83;;;;;;;-146.41;100.00;57768.22;4970063;28;20047;-67
2022/02/01 01:54:28;;;;;;;15.32;2.13;;;;;;;-146.41;100.00;57768.22;4965774;28;20056;-67
2022/02/01 01:56:57;;;;;;;20.17;2.63;;;;;;;-146.41;100.00;57768.22;4968218;28;20046;-67
2022/02/01 01:59:27;;;;;;;19.20;2.55;;;;;;;-146.41;100.00;57768.22;4967071;28;20046;-66
2022/02/01 02:01:55;;;;;;;22.63;2.55;;;;;;;-146.41;100.00;57768.22;4969807;28;20448;-67
2022/02/01 02:04:24;;;;;;;23.52;2.83;;;;;;;-146.41;100.00;57768.22;4969373;28;20082;-67
2022/02/01 02:37:30;;;;;;;18.00;2.05;;;;;;;-146.41;100.00;57768.22;4965652;28;20052;-67
2022/02/01 02:40:17;;;;;;;20.55;2.22;;;;;;;-146.41;100.00;57768.22;4969710;28;20129;-67
2022/02/01 02:45:32;;;;;;;17.63;1.33;;;;;;;-146.41;100.00;57768.22;4968187;28;20130;-66
2022/02/01 02:48:21;;;;;;;19.35;1.70;;;;;;;-146.41;100.00;57768.22;4954335;28;20061;-67
2022/02/01 02:50:49;;;;;;;21.10;2.55;;;;;;;-146.41;100.00;57768.22;4968203;28;20053;-67
2022/02/01 02:53:18;;;;;;;18.63;2.33;;;;;;;-146.41;100.00;57768.22;4966949;28;20651;-67
2022/02/01 02:55:47;;;;;;;19.67;2.50;;;;;;;-146.41;100.00;57768.22;4967389;28;20101;-66
2022/02/01 02:58:16;;;;;;;23.40;2.65;;;;;;;-146.41;100.00;57768.22;4966212;28;20138;-66
2022/02/01 03:00:44;;;;;;;21.13;2.40;;;;;;;-146.41;100.00;57768.22;4967305;28;20097;-66
2022/02/01 03:03:13;;;;;;;19.08;2.15;;;;;;;-146.41;100.00;57768.22;4966308;28;20451;-67
2022/02/01 03:05:42;;;;;;;17.27;2.50;;;;;;;-146.41;100.00;57768.22;4967369;28;20100;-68
2022/02/01 03:08:11;;;;;;;17.38;1.50;;;;;;;-146.41;100.00;57768.22;4967070;28;20055;-67
2022/02/01 03:10:39;;;;;;;25.60;3.92;;;;;;;-146.41;100.00;57768.22;4967636;28;20199;-65
2022/02/01 03:13:12;;;;;;;22.52;2.50;;;;;;;-146.41;100.00;57768.22;4968825;28;20123;-67
2022/02/01 03:15:52;;;;;;;17.17;2.10;;;;;;;-146.41;100.00;57768.22;4964372;28;20424;-67
2022/02/01 03:21:07;;;;;;;20.65;2.17;;;;;;;-146.41;100.00;57768.22;4967245;28;20348;-66
2022/02/01 03:23:36;;;;;;;15.23;2.40;;;;;;;-146.41;100.00;57768.22;4968259;28;20055;-67
2022/02/01 03:26:07;;;;;;;19.83;3.00;;;;;;;-146.41;100.00;57768.22;4967894;28;20050;-68
2022/02/01 03:28:35;;;;;;;19.95;2.17;;;;;;;-146.41;100.00;57768.22;4967328;28;20066;-67
2022/02/01 03:31:04;;;;;;;25.05;5.85;;;;;;;-146.41;100.00;57768.22;4967841;28;20054;-66
2022/02/01 03:33:32;;;;;;;28.85;7.15;;;;;;;-146.41;100.00;57768.22;4967478;28;20547;-66
2022/02/01 03:43:41;;;;;;;38.75;5.45;;;;;;;-146.41;100.00;57768.22;4968407;28;20433;-67
2022/02/01 03:46:09;;;;;;;18.52;1.95;;;;;;;-146.41;100.00;57768.22;4966687;28;20050;-65
2022/02/01 03:48:38;;;;;;;17.50;2.80;;;;;;;-146.41;100.00;57768.22;4967517;28;20047;-66
2022/02/01 03:51:08;;;;;;;23.50;2.47;;;;;;;-146.41;100.00;57768.22;4967621;28;20050;-66
2022/02/01 03:53:38;;;;;;;14.93;1.88;;;;;;;-146.41;100.00;57768.22;4966598;28;20456;-67
2022/02/01 03:56:07;;;;;;;21.60;2.55;;;;;;;-146.41;100.00;57768.22;4965546;28;20129;-66
2022/02/01 03:58:35;;;;;;;14.60;2.13;;;;;;;-146.41;100.00;57768.22;4967162;28;20061;-67
2022/02/01 04:01:04;;;;;;;14.52;2.17;;;;;;;-146.41;100.00;57768.22;4966994;28;20156;-67
2022/02/01 04:03:43;;;;;;;24.95;2.38;;;;;;;-146.41;100.00;57768.22;4967744;28;20434;-67
2022/02/01 04:06:12;;;;;;;15.07;1.77;;;;;;;-146.41;100.00;57768.22;4965839;28;20050;-67
2022/02/01 04:08:41;;;;;;;16.92;1.48;;;;;;;-146.41;100.00;57768.22;4966227;28;20137;-66
2022/02/01 04:11:10;;;;;;;14.68;1.73;;;;;;;-146.41;100.00;57768.22;4966340;28;20055;-66
2022/02/01 04:13:38;;;;;;;12.98;2.40;;;;;;;-146.41;100.00;57768.22;4968833;28;20130;-67
2022/02/01 04:16:07;;;;;;;18.02;2.25;;;;;;;-146.41;100.00;57768.22;4966768;28;20055;-66
2022/02/01 04:18:35;;;;;;;21.92;1.88;;;;;;;-146.41;100.00;57768.22;4964394;28;20086;-66
2022/02/01 04:21:04;;;;;;;16.83;1.98;;;;;;;-146.41;100.00;57768.22;4965633;28;20429;-67
2022/02/01 04:23:33;;;;;;;20.42;2.30;;;;;;;-146.41;100.00;57768.22;4965226;28;20361;-66
2022/02/01 04:26:01;;;;;;;10.68;2.08;;;;;;;-146.41;100.00;57768.22;4967496;28;20423;-66
2022/02/01 04:28:30;;;;;;;23.45;2.35;;;;;;;-146.41;100.00;57768.22;4968435;28;20115;-66
2022/02/01 04:30:58;;;;;;;14.27;1.88;;;;;;;-146.41;100.00;57768.22;4969760;28;20052;-67
2022/02/01 04:33:27;;;;;;;24.73;2.85;;;;;;;-146.41;100.00;57768.22;4972163;28;20058;-67
2022/02/01 04:35:56;;;;;;;17.00;3.00;;;;;;;-146.41;100.00;57768.22;4970852;28;20129;-67
2022/02/01 04:38:24;;;;;;;27.63;3.90;;;;;;;-146.41;100.00;57768.22;4971236;28;20139;-68
2022/02/01 04:40:54;;;;;;;15.55;2.00;;;;;;;-146.41;100.00;57768.22;4969460;28;20050;-67
2022/02/01 04:43:23;;;;;;;11.40;2.08;;;;;;;-146.41;100.00;57768.22;4969934;28;20089;-68
2022/02/01 04:45:52;;;;;;;17.95;2.35;;;;;;;-146.41;100.00;57768.22;4970847;28;20518;-67
2022/02/01 04:48:20;;;;;;;14.18;1.58;;;;;;;-146.41;100.00;57768.22;4971378;28;20174;-68
2022/02/01 04:50:49;;;;;;;9.27;1.38;;;;;;;-146.41;100.00;57768.22;4968148;28;20047;-68
2022/02/01 04:53:19;;;;;;;11.55;1.63;;;;;;;-146.41;100.00;57768.22;4970145;28;20090;-67
2022/02/01 04:55:54;;;;;;;9.55;1.45;;;;;;;-146.41;100.00;57768.22;4969652;28;20550;-68
2022/02/01 04:58:24;;;;;;;16.90;2.03;;;;;;;-146.41;100.00;57768.22;4969255;28;20632;-68
2022/02/01 05:00:54;;;;;;;15.35;1.40;;;;;;;-146.41;100.00;57768.22;4969502;28;20055;-67
2022/02/01 05:03:24;;;;;;;8.75;1.00;;;;;;;-146.41;100.00;57768.22;4970899;28;20051;-67
2022/02/01 05:05:53;;;;;;;14.63;1.65;;;;;;;-146.41;100.00;57768.22;4970112;28;20146;-68
2022/02/01 05:08:26;;;;;;;15.80;1.67;;;;;;;-146.41;100.00;57768.22;4970524;28;20142;-68
2022/02/01 05:10:57;;;;;;;7.50;1.20;;;;;;;-146.41;100.00;57768.22;4969453;28;20061;-67
2022/02/01 05:16:05;;;;;;;9.95;1.30;;;;;;;-146.41;100.00;57768.22;4966926;28;20121;-67
2022/02/01 05:18:49;;;;;;;12.43;1.50;;;;;;;-146.41;100.00;57768.22;4967016;28;20047;-67
2022/02/01 05:21:24;;;;;;;16.13;1.67;;;;;;;-146.41;100.00;57768.22;4966600;28;20498;-65
2022/02/01 05:23:54;;;;;;;8.70;1.48;;;;;;;-146.41;100.00;57768.22;4971368;28;20062;-67
2022/02/01 05:26:26;;;;;;;11.75;1.42;;;;;;;-146.41;100.00;57768.22;4967301;28;20134;-67
2022/02/01 05:28:57;;;;;;;12.15;1.30;;;;;;;-146.41;100.00;57768.22;4970905;28;20060;-67
2022/02/01 05:31:29;;;;;;;11.18;1.85;;;;;;;-146.41;100.00;57768.22;4967728;28;20128;-67
2022/02/01 05:33:59;;;;;;;15.23;1.75;;;;;;;-146.41;100.00;57768.22;4970576;28;20393;-67
2022/02/01 05:36:28;;;;;;;8.70;1.58;;;;;;;-146.41;100.00;57768.22;4966789;28;20476;-67
2022/02/01 05:38:58;;;;;;;12.30;1.50;;;;;;;-146.41;100.00;57768.22;4969529;28;20174;-67
2022/02/01 05:41:29;;;;;;;12.77;1.80;;;;;;;-146.41;100.00;57768.22;4966226;28;20053;-66
2022/02/01 05:43:59;;;;;;;13.02;2.10;;;;;;;-146.41;100.00;57768.22;4970307;28;20130;-66
2022/02/01 05:46:30;;;;;;;12.80;2.13;;;;;;;-146.41;100.00;57768.22;4969646;28;20051;-67
2022/02/01 05:49:01;;;;;;;13.35;1.40;;;;;;;-146.41;100.00;57768.22;4968278;28;20042;-67
2022/02/01 05:51:33;;;;;;;11.15;2.13;;;;;;;-146.41;100.00;57768.22;4965039;28;20133;-67
2022/02/01 05:54:03;;;;;;;14.32;1.83;;;;;;;-146.41;100.00;57768.22;4970811;28;20417;-66
2022/02/01 05:56:33;;;;;;;11.95;2.33;;;;;;;-146.41;100.00;57768.22;4968367;28;20054;-66
2022/02/01 05:59:04;;;;;;;11.70;1.90;;;;;;;-146.41;100.00;57768.22;4967389;28;20221;-66
2022/02/01 06:01:34;;;;;;;11.30;1.70;;;;;;;-146.41;100.00;57768.22;4968361;28;20105;-67
2022/02/01 06:04:05;;;;;;;15.50;1.98;;;;;;;-146.41;100.00;57768.22;4969939;28;20417;-68
2022/02/01 06:06:35;;;;;;;18.50;1.85;;;;;;;-146.41;100.00;57768.22;4967324;28;20082;-66
2022/02/01 06:09:05;;;;;;;21.65;1.95;;;;;;;-146.41;100.00;57768.22;4964547;28;20055;-68
2022/02/01 06:11:36;;;;;;;10.25;1.88;;;;;;;-146.41;100.00;57768.22;4967932;28;20145;-67
2022/02/01 06:14:06;;;;;;;10.55;1.83;;;;;;;-146.41;100.00;57768.22;4969355;28;20153;-67
2022/02/01 06:16:37;;;;;;;13.95;1.90;;;;;;;-146.41;100.00;57768.22;4965703;28;20049;-67
2022/02/01 06:19:07;;;;;;;12.45;1.88;;;;;;;-146.41;100.00;57768.22;4967281;28;20503;-67
2022/02/01 06:21:39;;;;;;;16.17;2.13;;;;;;;-146.41;100.00;57768.22;4968650;28;20477;-66
2022/02/01 06:24:09;;;;;;;17.67;2.30;;;;;;;-146.41;100.00;57768.22;4970117;28;20117;-67
2022/02/01 06:26:40;;;;;;;14.38;2.88;;;;;;;-146.41;100.00;57768.22;4968041;28;20089;-67
2022/02/01 06:29:10;;;;;;;11.68;2.00;;;;;;;-146.41;100.00;57768.22;4967564;28;20046;-66
2022/02/01 06:31:40;;;;;;;17.60;2.55;;;;;;;-146.41;100.00;57768.22;4967220;28;20129;-66
2022/02/01 06:34:11;;;;;;;16.10;2.42;;;;;;;-146.41;100.00;57768.22;4966492;28;20143;-66
2022/02/01 06:36:41;;;;;;;13.80;2.10;;;;;;;-146.41;100.00;57768.22;4971211;28;20152;-67
2022/02/01 06:39:12;;;;;;;13.25;2.67;;;;;;;-146.41;100.00;57768.22;4972289;28;20133;-68
2022/02/01 06:41:42;;;;;;;12.15;2.25;;;;;;;-146.41;100.00;57768.22;4969731;28;20119;-67
2022/02/01 06:44:13;;;;;;;14.00;2.00;;;;;;;-146.41;100.00;57768.22;4968438;28;20055;-68
2022/02/01 06:46:44;;;;;;;19.27;2.28;;;;;;;-146.41;100.00;57768.22;4969817;28;20515;-68
2022/02/01 06:49:14;;;;;;;16.95;2.05;;;;;;;-146.41;100.00;57768.22;4970979;28;20057;-67
2022/02/01 06:51:45;;;;;;;15.00;2.03;;;;;;;-146.41;100.00;57768.22;4970139;28;20153;-66
2022/02/01 06:54:16;;;;;;;17.65;2.47;;;;;;;-146.41;100.00;57768.22;4967553;28;20133;-68
2022/02/01 06:56:47;;;;;;;14.00;1.75;;;;;;;-146.41;100.00;57768.22;4971394;28;20058;-67
2022/02/01 06:59:17;;;;;;;16.92;2.50;;;;;;;-146.41;100.00;57768.22;4971190;28;20090;-67
2022/02/01 07:01:48;;;;;;;16.63;2.58;;;;;;;-146.41;100.00;57768.22;4971497;28;20057;-68
2022/02/01 07:04:18;;;;;;;17.52;2.78;;;;;;;-146.41;100.00;57768.22;4969234;28;20054;-67
2022/02/01 07:06:48;;;;;;;13.85;1.92;;;;;;;-146.41;100.00;57768.22;4969033;28;20138;-67
2022/02/01 07:09:21;;;;;;;18.02;2.45;;;;;;;-146.41;100.00;57768.22;4966696;28;20447;-67
2022/02/01 07:11:52;;;;;;;16.20;2.30;;;;;;;-146.41;100.00;57768.22;4966911;28;20152;-68
2022/02/01 07:14:23;;;;;;;15.25;2.22;;;;;;;-146.41;100.00;57768.22;4968943;28;20059;-68
2022/02/01 07:16:53;;;;;;;15.27;2.15;;;;;;;-146.41;100.00;57768.22;4969008;28;20344;-67
2022/02/01 07:19:23;;;;;;;20.23;3.38;;;;;;;-146.41;100.00;57768.22;4973814;28;20070;-67
2022/02/01 07:21:54;;;;;;;17.67;3.00;;;;;;;-146.41;100.00;57768.22;4967653;28;20122;-67
2022/02/01 07:24:30;;;;;;;18.92;2.78;;;;;;;-146.41;100.00;57768.22;4965200;28;20448;-67
2022/02/01 07:27:09;;;;;;;9.88;2.17;;;;;;;-146.41;100.00;57768.22;4968019;28;20086;-66
2022/02/01 07:29:40;;;;;;;17.08;3.28;;;;;;;-146.41;100.00;57768.22;4967426;28;20086;-66
2022/02/01 07:32:11;;;;;;;18.25;3.08;;;;;;;-146.41;100.00;57768.22;4966956;28;20137;-67
2022/02/01 07:34:41;;;;;;;18.10;4.18;;;;;;;-146.41;100.00;57768.22;4966075;28;20392;-66
2022/02/01 07:37:12;;;;;;;14.13;2.78;;;;;;;-146.41;100.00;57768.22;4968333;28;20134;-67
2022/02/01 07:39:42;;;;;;;24.98;3.92;;;;;;;-146.41;100.00;57768.22;4968299;28;20499;-67
2022/02/01 07:42:13;;;;;;;21.63;3.55;;;;;;;-146.41;100.00;57768.22;4966730;28;20050;-68
2022/02/01 07:44:44;;;;;;;21.65;3.08;;;;;;;-146.41;100.00;57768.22;4966060;28;20137;-66
2022/02/01 07:47:21;;;;;;;17.88;3.50;;;;;;;-146.41;100.00;57768.22;4968379;28;20047;-67
2022/02/01 07:49:52;;;;;;;24.27;3.88;;;;;;;-146.41;100.00;57768.22;4967848;28;20134;-67
2022/02/01 07:52:23;;;;;;;18.70;4.50;;;;;;;-146.41;100.00;57768.22;4967015;28;20055;-67
2022/02/01 07:54:53;;;;;;;19.00;2.97;;;;;;;-146.41;100.00;57768.22;4968054;28;20077;-67
2022/02/01 07:57:23;;;;;;;17.77;3.72;;;;;;;-146.41;100.00;57768.22;4967297;28;20491;-66
2022/02/01 07:59:54;;;;;;;16.35;2.88;;;;;;;-146.41;100.00;57768.22;4966995;28;20499;-66
2022/02/01 08:02:25;;;;;;;15.95;2.85;;;;;;;-146.41;100.00;57768.22;4965762;28;20043;-67
2022/02/01 08:05:16;;;;;;;23.05;4.75;;;;;;;-146.41;100.00;57768.22;4970618;28;20166;-67
2022/02/01 08:07:46;;;;;;;16.38;3.00;;;;;;;-146.41;100.00;57768.22;4971858;28;20054;-66
2022/02/01 08:10:17;;;;;;;22.80;3.15;;;;;;;-146.41;100.00;57768.22;4971687;28;20424;-66
2022/02/01 08:21:02;;;;;;;22.08;5.30;;;;;;;-146.41;100.00;57768.22;4970095;28;20081;-66
2022/02/01 08:23:31;;;;;;;20.38;3.13;;;;;;;-146.41;100.00;57768.22;4970468;28;20094;-67
2022/02/01 08:26:01;;;;;;;12.90;2.80;;;;;;;-146.41;100.00;57768.22;4968424;28;20418;-66
2022/02/01 08:28:30;;;;;;;15.95;2.58;;;;;;;-146.41;100.00;57768.22;4971163;28;20092;-68
2022/02/01 08:31:01;;;;;;;23.40;2.83;;;;;;;-146.41;100.00;57768.22;4967955;28;20146;-67
2022/02/01 08:33:32;;;;;;;19.20;2.63;;;;;;;-146.41;100.00;57768.22;4969919;28;20059;-67
2022/02/01 08:36:00;;;;;;;18.63;2.80;;;;;;;-146.41;100.00;57768.22;4971336;28;20437;-67
2022/02/01 08:38:28;;;;;;;23.02;3.05;;;;;;;-146.41;100.00;57768.22;4968448;28;20133;-68
2022/02/01 08:41:00;;;;;;;14.82;2.60;;;;;;;-146.41;100.00;57768.22;4969821;28;20118;-67
2022/02/01 08:43:31;;;;;;;14.38;2.58;;;;;;;-146.41;100.00;57768.22;4965271;28;20057;-66
2022/02/01 08:46:02;;;;;;;12.48;2.45;;;;;;;-146.41;100.00;57768.22;4968184;28;20054;-67
2022/02/01 08:48:31;;;;;;;22.50;2.30;;;;;;;-146.41;100.00;57768.22;4971146;28;20520;-67
2022/02/01 08:51:04;;;;;;;16.42;2.97;;;;;;;-146.41;100.00;57768.22;4969958;28;20086;-67
2022/02/01 08:53:46;;;;;;;17.23;2.42;;;;;;;-146.41;100.00;57768.22;4968995;28;20129;-67
2022/02/01 08:59:22;;;;;;;11.52;2.55;;;;;;;-146.41;100.00;57768.22;4971167;28;20376;-66
2022/02/01 09:01:52;;;;;;;13.35;2.53;;;;;;;-146.41;100.00;57768.22;4969234;28;20133;-67
2022/02/01 09:04:22;;;;;;;10.13;2.20;;;;;;;-146.41;100.00;57768.22;4970372;28;20046;-67
2022/02/01 09:06:50;;;;;;;15.35;2.13;;;;;;;-146.41;100.00;57768.22;4966542;28;20082;-66
2022/02/01 09:09:20;;;;;;;18.30;2.53;;;;;;;-146.41;100.00;57768.22;4966619;28;20084;-67
2022/02/01 09:11:50;;;;;;;13.85;2.33;;;;;;;-146.41;100.00;57768.22;4970422;28;20113;-66
2022/02/01 09:14:19;;;;;;;18.73;2.17;;;;;;;-146.41;100.00;57768.22;4971370;28;20082;-67
2022/02/01 09:16:48;;;;;;;13.50;1.92;;;;;;;-146.41;100.00;57768.22;4969467;28;20130;-68
2022/02/01 09:19:17;;;;;;;19.05;3.33;;;;;;;-146.41;100.00;57768.22;4968441;28;20058;-66
2022/02/01 09:21:46;;;;;;;16.00;2.08;;;;;;;-146.41;100.00;57768.22;4968277;28;20081;-67
2022/02/01 09:24:15;;;;;;;13.55;2.35;;;;;;;-146.41;100.00;57768.22;4971328;28;20078;-67
2022/02/01 09:26:44;;;;;;;12.82;2.08;;;;;;;-146.41;100.00;57768.22;4968992;28;20082;-67
2022/02/01 09:29:21;;;;;;;12.02;2.58;;;;;;;-146.41;100.00;57768.22;4968628;28;20166;-66
2022/02/01 09:31:51;;;;;;;16.25;2.38;;;;;;;-146.41;100.00;57768.22;4968855;28;20146;-67
2022/02/01 09:34:20;;;;;;;12.15;1.67;;;;;;;-146.41;100.00;57768.22;4969350;28;20141;-68
2022/02/01 09:36:51;;;;;;;12.43;2.45;;;;;;;-146.41;100.00;57768.22;4969900;28;20541;-67
2022/02/01 09:39:20;;;;;;;19.42;2.47;;;;;;;-146.41;100.00;57768.22;4969143;28;20433;-67
2022/02/01 09:41:49;;;;;;;16.60;2.30;;;;;;;-146.41;100.00;57768.22;4964172;28;20043;-67
2022/02/01 09:44:19;;;;;;;11.60;2.15;;;;;;;-146.41;100.00;57768.22;4964304;28;20154;-67
2022/02/01 09:46:49;;;;;;;11.00;2.05;;;;;;;-146.41;100.00;57768.22;4968768;28;20095;-66
2022/02/01 09:49:22;;;;;;;10.57;1.98;;;;;;;-146.41;100.00;57768.22;4948861;28;20055;-66
2022/02/01 09:51:54;;;;;;;13.27;2.23;;;;;;;-146.41;100.00;57768.22;4967138;28;20054;-67
2022/02/01 09:54:25;;;;;;;18.92;2.53;;;;;;;-146.41;100.00;57768.22;4966939;28;20394;-67
2022/02/01 09:56:54;;;;;;;13.00;2.17;;;;;;;-146.41;100.00;57768.22;4969040;28;20113;-66
2022/02/01 09:59:32;;;;;;;21.73;2.67;;;;;;;-146.41;100.00;57768.22;4966982;28;20061;-67
2022/02/01 10:02:08;;;;;;;17.80;2.78;;;;;;;-146.41;100.00;57768.22;4966532;28;20617;-67
2022/02/01 10:04:38;;;;;;;17.52;2.03;;;;;;;-146.41;100.00;57768.22;4968402;28;20050;-67
2022/02/01 10:07:13;;;;;;;17.02;2.95;;;;;;;-146.41;100.00;57768.22;4968249;28;20054;-67
2022/02/01 10:09:57;;;;;;;14.85;2.75;;;;;;;-146.41;100.00;57768.22;4969280;28;20477;-67
2022/02/01 10:12:35;;;;;;;20.25;2.63;;;;;;;-146.41;100.00;57768.22;4968038;28;20082;-68
2022/02/01 10:15:14;;;;;;;17.95;2.40;;;;;;;-146.41;100.00;57768.22;4968679;28;20046;-68
2022/02/01 10:17:48;;;;;;;14.10;2.45;;;;;;;-146.41;100.00;57768.22;4966617;28;20050;-68
2022/02/01 10:20:18;;;;;;;14.45;2.97;;;;;;;-146.41;100.00;57768.22;4965009;28;20520;-68
2022/02/01 10:22:48;;;;;;;14.45;2.92;;;;;;;-146.41;100.00;57768.22;4964747;28;20055;-67
2022/02/01 10:25:29;;;;;;;25.42;2.28;;;;;;;-146.41;100.00;57768.22;4967240;28;20063;-67
2022/02/01 10:28:01;;;;;;;11.85;1.92;;;;;;;-146.41;100.00;57768.22;4964525;28;20439;-67
2022/02/01 10:30:51;;;;;;;9.60;2.15;;;;;;;-146.41;100.00;57768.22;4966878;28;20526;-67
2022/02/01 10:34:02;;;;;;;21.60;2.45;;;;;;;-146.41;100.00;57768.22;4969305;28;20068;-67
2022/02/01 10:36:39;;;;;;;12.13;2.70;;;;;;;-146.41;100.00;57768.22;4966178;28;20142;-67
2022/02/01 10:39:21;;;;;;;16.60;3.25;;;;;;;-146.41;100.00;57768.22;4969346;28;20511;-66
2022/02/01 10:42:00;;;;;;;16.15;2.95;;;;;;;-146.41;100.00;57768.22;4965569;28;20046;-67
2022/02/01 10:44:41;;;;;;;12.23;2.83;;;;;;;-146.41;100.00;57768.22;4968117;28;20050;-67
2022/02/01 10:47:14;;;;;;;12.30;2.83;;;;;;;-146.41;100.00;57768.22;4968427;28;20482;-68
2022/02/01 10:50:11;;;;;;;12.98;2.15;;;;;;;-146.41;100.00;57768.22;4966319;28;20065;-67
2022/02/01 10:52:48;;;;;;;5.72;1.77;;;;;;;-146.41;100.00;57768.22;4964434;28;20059;-67
2022/02/01 10:55:20;;;;;;;6.32;2.20;;;;;;;-146.41;100.00;57768.22;4967076;28;20055;-66
2022/02/01 10:57:51;;;;;;;14.63;2.30;;;;;;;-146.41;100.00;57768.22;4968368;28;20061;-65
2022/02/01 11:00:21;;;;;;;16.02;2.22;;;;;;;-146.41;100.00;57768.22;4967725;28;20054;-66
2022/02/01 11:02:52;;;;;;;6.65;1.98;;;;;;;-146.41;100.00;57768.22;4969161;28;20324;-67
2022/02/01 11:05:28;;;;;;;10.60;1.77;;;;;;;-146.41;100.00;57768.22;4961918;28;20054;-65
2022/02/01 11:08:08;;;;;;;11.93;2.50;;;;;;;-146.41;100.00;57768.22;4962065;28;20508;-65
2022/02/01 11:10:42;;;;;;;13.85;2.20;;;;;;;-146.41;100.00;57768.22;4963915;28;20065;-66
2022/02/01 11:13:13;;;;;;;9.00;2.03;;;;;;;-146.41;100.00;57768.22;4965597;28;20074;-66
2022/02/01 11:15:54;;;;;;;5.80;1.70;;;;;;;-146.41;100.00;57768.22;4964990;28;20065;-65
2022/02/01 11:18:26;;;;;;;9.98;1.75;;;;;;;-146.41;100.00;57768.22;4965951;28;20071;-66
2022/02/01 11:21:19;;;;;;;6.25;1.58;;;;;;;-146.41;100.00;57768.22;4965203;28;20058;-65
2022/02/01 11:24:06;;;;;;;3.53;1.48;;;;;;;-146.41;100.00;57768.22;4965447;28;20054;-65
2022/02/01 11:26:49;;;;;;;5.80;1.30;;;;;;;-146.41;100.00;57768.22;4966555;28;20073;-66
2022/02/01 11:32:03;;;;;;;6.15;2.15;;;;;;;-146.41;100.00;57768.22;4963511;28;20321;-66
2022/02/01 11:35:05;;;;;;;7.13;2.28;;;;;;;-146.41;100.00;57768.22;4963754;28;20066;-65
2022/02/01 11:38:02;;;;;;;7.78;1.60;;;;;;;-146.41;100.00;57768.22;4950924;28;20051;-66
2022/02/01 11:40:49;;;;;;;9.30;2.08;;;;;;;-146.41;100.00;57768.22;4970122;28;20053;-66
2022/02/01 11:43:40;;;;;;;9.18;2.55;;;;;;;-146.41;100.00;57768.22;4969349;28;20051;-65
2022/02/01 11:46:12;;;;;;;9.10;2.10;;;;;;;-146.41;100.00;57768.22;4968762;28;20059;-65
2022/02/01 11:48:49;;;;;;;3.75;1.45;;;;;;;-146.41;100.00;57768.22;4968696;28;20047;-65
2022/02/01 11:51:22;;;;;;;6.30;1.65;;;;;;;-146.41;100.00;57768.22;4967378;28;20053;-65
2022/02/01 11:54:00;;;;;;;6.28;1.90;;;;;;;-146.41;100.00;57768.22;4971421;28;20101;-66
2022/02/01 11:56:40;;;;;;;10.35;2.03;;;;;;;-146.41;100.00;57768.22;4967661;28;20512;-65
2022/02/01 11:59:17;;;;;;;8.65;2.25;;;;;;;-146.41;100.00;57768.22;4970174;28;20054;-65
2022/02/01 12:01:47;;;;;;;5.25;1.85;;;;;;;-146.41;100.00;57768.22;4970018;28;20498;-66
2022/02/01 12:04:19;;;;;;;6.07;1.85;;;;;;;-146.41;100.00;57768.22;4970947;28;20057;-65
2022/02/01 12:07:06;;;;;;;6.13;2.10;;;;;;;-146.41;100.00;57768.22;4965675;28;20054;-67
2022/02/01 12:09:40;;;;;;;4.95;1.65;;;;;;;-146.41;100.00;57768.22;4954275;28;20097;-67
2022/02/01 12:12:11;;;;;;;5.40;2.22;;;;;;;-146.41;100.00;57768.22;4967226;28;20082;-67
2022/02/01 12:14:41;;;;;;;6.07;1.60;;;;;;;-146.41;100.00;57768.22;4966580;28;20107;-66
2022/02/01 12:17:12;;;;;;;6.85;2.08;;;;;;;-146.41;100.00;57768.22;4970719;28;20058;-66
2022/02/01 12:19:54;;;;;;;5.80;1.80;;;;;;;-146.41;100.00;57768.22;4968841;28;20051;-66
2022/02/01 12:22:48;;;;;;;4.25;1.40;;;;;;;-146.41;100.00;57768.22;4968029;28;20125;-66
2022/02/01 12:25:18;;;;;;;6.93;1.85;;;;;;;-146.41;100.00;57768.22;4966050;28;20054;-66
2022/02/01 12:27:49;;;;;;;6.85;2.20;;;;;;;-146.41;100.00;57768.22;4969710;28;20058;-67
2022/02/01 12:30:19;;;;;;;5.93;2.20;;;;;;;-146.41;100.00;57768.22;4967615;28;20109;-65
2022/02/01 12:32:56;;;;;;;6.63;2.03;;;;;;;-146.41;100.00;57768.22;4973090;28;20558;-66
2022/02/01 12:35:42;;;;;;;5.97;1.77;;;;;;;-146.41;100.00;57768.22;4970455;28;20130;-66
2022/02/01 12:38:20;;;;;;;9.32;3.67;;;;;;;-146.41;100.00;57768.22;4967973;28;20440;-66
2022/02/01 12:41:11;;;;;;;5.15;2.83;;;;;;;-146.41;100.00;57768.22;4968679;28;20057;-66
2022/02/01 12:45:45;;;;;;;4.97;2.47;;;;;;;-146.41;100.00;57768.22;4963901;28;20159;-65
2022/02/01 12:46:54;;;;;;;5.97;2.70;;;;;;;-146.41;100.00;57768.22;4968507;28;20050;-65
2022/02/01 12:49:52;;;;;;;8.55;3.47;;;;;;;-146.41;100.00;57768.22;4968996;28;20054;-67
2022/02/01 12:52:32;;;;;;;4.20;2.67;;;;;;;-146.41;100.00;57768.22;4968594;28;20053;-66
2022/02/01 12:55:15;;;;;;;7.50;4.28;;;;;;;-146.41;100.00;57768.22;4967858;28;20066;-66
2022/02/01 12:58:14;;;;;;;7.72;3.70;;;;;;;-146.41;100.00;57768.22;4968566;28;20055;-66
2022/02/01 13:00:52;;;;;;;4.65;2.28;;;;;;;-146.41;100.00;57768.22;4967230;28;20042;-65
2022/02/01 13:03:38;;;;;;;3.10;1.73;;;;;;;-146.41;100.00;57768.22;4967864;28;20132;-66
2022/02/01 13:06:16;;;;;;;6.28;2.33;;;;;;;-146.41;100.00;57768.22;4973211;28;20050;-66
2022/02/01 13:14:47;;;;;;;5.95;2.40;;;;;;;-146.41;100.00;57768.22;4965016;28;20063;-66
2022/02/01 13:20:19;;;;;;;5.30;2.42;;;;;;;-146.41;100.00;57768.22;4966075;28;20089;-66
2022/02/01 13:22:55;;;;;;;4.40;2.00;;;;;;;-146.41;100.00;57768.22;4964369;28;20456;-65
2022/02/01 13:25:38;;;;;;;5.28;2.03;;;;;;;-146.41;100.00;57768.22;4967177;28;20728;-66
2022/02/01 13:28:11;;;;;;;4.28;1.73;;;;;;;-146.41;100.00;57768.22;4948679;28;20050;-66
2022/02/01 13:30:49;;;;;;;3.65;1.80;;;;;;;-146.41;100.00;57768.22;4966442;28;20063;-67
2022/02/01 13:33:23;;;;;;;2.72;1.45;;;;;;;-146.41;100.00;57768.22;4966835;28;20054;-66
2022/02/01 13:35:58;;;;;;;4.97;1.63;;;;;;;-146.41;100.00;57768.22;4971061;28;20058;-67
2022/02/01 13:38:29;;;;;;;3.60;1.10;;;;;;;-146.41;100.00;57768.22;4968516;28;20373;-65
2022/02/01 13:41:08;;;;;;;4.93;1.40;;;;;;;-146.41;100.00;57768.22;4965586;28;20059;-66
2022/02/01 13:43:51;;;;;;;4.43;1.65;;;;;;;-146.41;100.00;57768.22;4969336;28;20076;-67
2022/02/01 13:46:28;;;;;;;4.53;2.25;;;;;;;-146.41;100.00;57768.22;4966488;28;20050;-67